Time;durP1;ratioP1;P1;durP2;ratioP2;P2;SDS_P1;SDS_P2;PMS_P1;PMS_P2;Temp;Humidity;BMP_temperature;BMP_pressure;BME280_temperature;BME280_humidity;BME280_pressure;Samples;Min_cycle;Max_cycle;Signal;HPM_P1;HPM_P2
2021/10/12 00:01:52;;;;;;;13.80;2.67;;;;;;;8.27;100.00;101391.25;7367522;19;20482;-49
2021/10/12 00:04:21;;;;;;;7.07;2.30;;;;;;;8.23;100.00;101379.88;7398726;19;20451;-47
2021/10/12 00:06:53;;;;;;;63.40;31.97;;;;;;;8.35;100.00;101372.91;7386895;19;20434;-51
2021/10/12 00:09:23;;;;;;;8.43;2.60;;;;;;;8.42;100.00;101384.47;7401745;19;20905;-49
2021/10/12 00:11:52;;;;;;;7.23;2.07;;;;;;;8.40;100.00;101396.34;7373892;19;20466;-47
2021/10/12 00:14:22;;;;;;;12.70;2.70;;;;;;;8.48;100.00;101383.94;7399405;19;20527;-53
2021/10/12 00:16:52;;;;;;;10.70;1.83;;;;;;;8.27;100.00;101388.66;7375730;19;21877;-49
2021/10/12 00:19:22;;;;;;;7.83;2.00;;;;;;;8.22;100.00;101386.69;7401581;19;20650;-51
2021/10/12 00:21:54;;;;;;;9.57;2.10;;;;;;;8.18;100.00;101405.31;7391876;19;20467;-48
2021/10/12 00:24:23;;;;;;;6.37;1.77;;;;;;;8.03;100.00;101402.69;7400062;19;20403;-48
2021/10/12 00:26:53;;;;;;;10.00;2.20;;;;;;;8.05;100.00;101395.94;7394394;19;20403;-54
2021/10/12 00:29:22;;;;;;;11.47;3.20;;;;;;;8.03;100.00;101392.41;7401332;19;20398;-48
2021/10/12 00:31:52;;;;;;;11.77;2.60;;;;;;;7.99;100.00;101394.69;7396189;19;20407;-48
2021/10/12 00:34:21;;;;;;;7.63;2.27;;;;;;;7.99;100.00;101390.41;7401285;19;20986;-53
2021/10/12 00:36:53;;;;;;;6.50;2.53;;;;;;;8.13;100.00;101395.53;7363540;19;20479;-51
2021/10/12 00:39:23;;;;;;;4.73;2.33;;;;;;;8.09;100.00;101391.88;7400691;19;20524;-51
2021/10/12 00:41:53;;;;;;;5.33;1.90;;;;;;;8.00;100.00;101392.19;7347441;19;20416;-48
2021/10/12 00:44:23;;;;;;;3.47;2.17;;;;;;;8.10;100.00;101391.06;7399483;19;20482;-51
2021/10/12 00:46:52;;;;;;;12.43;2.37;;;;;;;8.07;100.00;101393.47;7385551;19;20423;-50
2021/10/12 00:49:22;;;;;;;4.90;2.40;;;;;;;8.11;100.00;101403.16;7400253;19;20854;-53
2021/10/12 00:51:55;;;;;;;7.80;2.53;;;;;;;8.16;100.00;101400.88;7395860;19;20444;-50
2021/10/12 00:54:24;;;;;;;6.00;2.40;;;;;;;8.05;100.00;101397.63;7398483;19;20420;-51
2021/10/12 00:56:54;;;;;;;7.60;4.63;;;;;;;8.14;100.00;101397.31;7393990;19;20789;-49
2021/10/12 00:59:23;;;;;;;8.70;2.60;;;;;;;8.04;100.00;101395.84;7399735;19;20459;-53
2021/10/12 01:01:53;;;;;;;15.37;2.57;;;;;;;8.06;100.00;101404.56;7378413;19;20427;-51
2021/10/12 01:04:23;;;;;;;9.00;4.77;;;;;;;8.13;100.00;101400.66;7399263;19;20420;-50
2021/10/12 01:06:55;;;;;;;3.53;2.40;;;;;;;8.06;100.00;101389.13;7387845;19;20426;-52
2021/10/12 01:09:25;;;;;;;17.50;3.10;;;;;;;8.05;100.00;101388.22;7399904;19;20462;-54
2021/10/12 01:11:54;;;;;;;5.10;3.50;;;;;;;8.06;100.00;101384.00;7387195;19;20482;-51
2021/10/12 01:14:23;;;;;;;7.13;4.03;;;;;;;8.06;100.00;101389.13;7393850;19;20439;-50
2021/10/12 01:16:53;;;;;;;10.07;3.23;;;;;;;8.08;100.00;101373.00;7347226;19;20701;-53
2021/10/12 01:19:23;;;;;;;7.13;3.70;;;;;;;8.06;100.00;101374.59;7399622;19;20459;-48
2021/10/12 01:21:55;;;;;;;9.57;3.80;;;;;;;8.03;100.00;101365.78;7395348;19;20456;-53
2021/10/12 01:24:24;;;;;;;7.20;3.30;;;;;;;7.99;100.00;101353.56;7398252;19;20421;-53
2021/10/12 01:26:54;;;;;;;6.60;4.13;;;;;;;7.95;100.00;101345.66;7348899;19;20412;-52
2021/10/12 01:29:23;;;;;;;8.43;3.87;;;;;;;8.01;100.00;101349.41;7399672;19;20388;-52
2021/10/12 01:31:53;;;;;;;7.10;4.13;;;;;;;8.02;100.00;101346.03;7346659;19;20388;-49
2021/10/12 01:34:23;;;;;;;9.67;4.80;;;;;;;7.99;100.00;101349.31;7398065;19;20423;-50
2021/10/12 01:36:55;;;;;;;9.10;4.30;;;;;;;7.98;100.00;101350.09;7363327;19;20463;-50
2021/10/12 01:39:25;;;;;;;13.23;5.50;;;;;;;8.01;100.00;101369.97;7398702;19;20407;-53
2021/10/12 01:41:54;;;;;;;11.30;4.63;;;;;;;8.01;100.00;101367.41;7399406;19;20444;-52
2021/10/12 01:44:24;;;;;;;10.70;4.57;;;;;;;8.05;100.00;101370.25;7364762;19;20427;-53
2021/10/12 01:46:53;;;;;;;9.43;3.90;;;;;;;7.99;100.00;101366.41;7398450;19;20455;-49
2021/10/12 01:49:23;;;;;;;9.10;4.20;;;;;;;7.98;100.00;101334.69;7346845;19;20479;-49
2021/10/12 01:51:55;;;;;;;7.63;4.50;;;;;;;8.07;100.00;101324.97;7399289;19;20390;-52
2021/10/12 01:54:25;;;;;;;9.20;4.57;;;;;;;8.03;100.00;101319.53;7370230;19;20398;-51
2021/10/12 01:56:55;;;;;;;9.13;3.37;;;;;;;7.95;100.00;101308.81;7398281;19;20400;-49
2021/10/12 01:59:25;;;;;;;5.80;2.80;;;;;;;7.92;100.00;101293.19;7381735;19;20451;-53
2021/10/12 02:01:54;;;;;;;12.07;6.00;;;;;;;7.97;100.00;101282.41;7398936;19;20406;-52
2021/10/12 02:04:24;;;;;;;6.50;3.60;;;;;;;8.06;100.00;101284.63;7345137;19;20439;-55
2021/10/12 02:06:56;;;;;;;7.73;2.73;;;;;;;7.97;100.00;101274.72;7398536;19;20450;-53
2021/10/12 02:09:26;;;;;;;5.20;2.80;;;;;;;8.07;100.00;101282.97;7370006;19;20712;-55
2021/10/12 02:11:55;;;;;;;5.07;3.30;;;;;;;7.89;100.00;101273.34;7398156;19;20507;-54
2021/10/12 02:14:25;;;;;;;7.23;3.70;;;;;;;7.84;100.00;101269.59;7353551;19;20415;-52
2021/10/12 02:16:54;;;;;;;4.23;2.60;;;;;;;7.81;100.00;101261.72;7397484;19;20402;-55
2021/10/12 02:19:24;;;;;;;5.53;2.77;;;;;;;7.75;100.00;101263.91;7393372;19;20887;-52
2021/10/12 02:21:56;;;;;;;9.30;3.00;;;;;;;7.73;100.00;101252.66;7398338;19;20683;-50
2021/10/12 02:24:26;;;;;;;7.93;2.60;;;;;;;7.70;100.00;101248.22;7335120;19;20503;-54
2021/10/12 02:26:55;;;;;;;4.20;2.40;;;;;;;7.63;100.00;101239.22;7397184;19;20400;-49
2021/10/12 02:29:25;;;;;;;8.73;2.90;;;;;;;7.66;100.00;101238.53;7389755;19;20437;-51
2021/10/12 02:31:54;;;;;;;6.83;2.60;;;;;;;7.67;100.00;101230.94;7399506;19;20852;-53
2021/10/12 02:34:24;;;;;;;7.53;3.47;;;;;;;7.57;100.00;101238.84;7392163;19;20426;-51
2021/10/12 02:36:56;;;;;;;6.83;4.30;;;;;;;7.61;100.00;101233.13;7396889;19;20402;-54
2021/10/12 02:39:25;;;;;;;6.70;4.03;;;;;;;7.62;100.00;101229.75;7391164;19;20493;-51
2021/10/12 02:41:55;;;;;;;10.70;3.63;;;;;;;7.60;100.00;101228.78;7397717;19;20451;-54
2021/10/12 02:44:24;;;;;;;7.13;4.30;;;;;;;7.61;100.00;101230.56;7344586;19;20424;-53
2021/10/12 02:46:54;;;;;;;5.30;3.90;;;;;;;7.57;100.00;101226.91;7408885;19;20407;-49
2021/10/12 02:49:23;;;;;;;5.50;3.23;;;;;;;7.56;100.00;101231.94;7399798;19;20421;-55
2021/10/12 02:51:55;;;;;;;10.80;3.70;;;;;;;7.60;100.00;101226.22;7404795;19;20885;-55
2021/10/12 02:54:24;;;;;;;5.43;3.37;;;;;;;7.61;100.00;101228.00;7377992;19;20518;-52
2021/10/12 02:56:54;;;;;;;6.67;2.70;;;;;;;7.57;100.00;101223.44;7403235;19;20447;-54
2021/10/12 02:59:24;;;;;;;8.33;3.37;;;;;;;7.57;100.00;101220.88;7374465;19;20399;-55
2021/10/12 03:01:53;;;;;;;7.90;2.80;;;;;;;7.59;100.00;101221.84;7404497;19;20435;-54
2021/10/12 03:04:23;;;;;;;6.50;2.70;;;;;;;7.57;100.00;101231.16;7397151;19;20414;-53
2021/10/12 03:06:55;;;;;;;8.57;2.90;;;;;;;7.52;100.00;101229.97;7403188;19;20405;-55
2021/10/12 03:09:24;;;;;;;5.93;3.43;;;;;;;7.64;100.00;101217.88;7399555;19;20421;-55
2021/10/12 03:11:54;;;;;;;12.80;3.20;;;;;;;7.60;100.00;101220.19;7408492;19;20483;-55
2021/10/12 03:14:23;;;;;;;13.30;3.23;;;;;;;7.62;100.00;101209.22;7398860;19;20421;-54
2021/10/12 03:16:53;;;;;;;5.50;2.80;;;;;;;7.56;100.00;101204.59;7403117;19;20719;-52
2021/10/12 03:19:23;;;;;;;7.37;3.00;;;;;;;7.56;100.00;101201.13;7402071;19;20439;-55
2021/10/12 03:21:54;;;;;;;6.40;2.40;;;;;;;7.56;100.00;101202.03;7403792;19;20392;-48
2021/10/12 03:24:27;;;;;;;4.20;2.50;;;;;;;7.57;100.00;101202.91;7397432;19;20486;-49
2021/10/12 03:26:56;;;;;;;4.00;2.50;;;;;;;7.60;100.00;101203.09;7402888;19;20398;-50
2021/10/12 03:29:26;;;;;;;5.27;2.37;;;;;;;7.55;100.00;101191.66;7394240;19;20490;-49
2021/10/12 03:31:55;;;;;;;11.80;2.30;;;;;;;7.57;100.00;101177.22;7404192;19;20447;-48
2021/10/12 03:34:25;;;;;;;5.73;2.10;;;;;;;7.52;100.00;101179.50;7339614;19;20411;-48
2021/10/12 03:36:54;;;;;;;4.10;1.63;;;;;;;7.54;100.00;101170.22;7402310;19;20398;-50
2021/10/12 03:39:27;;;;;;;3.67;1.80;;;;;;;7.59;100.00;101170.50;7398836;19;20415;-48
2021/10/12 03:41:57;;;;;;;10.73;1.90;;;;;;;7.54;100.00;101161.66;7403307;19;20384;-48
2021/10/12 03:44:30;;;;;;;3.10;1.50;;;;;;;7.54;100.00;101159.06;7375687;19;20424;-48
2021/10/12 03:47:00;;;;;;;5.80;1.60;;;;;;;7.51;100.00;101152.06;7402196;19;20715;-53
2021/10/12 03:49:29;;;;;;;3.90;2.77;;;;;;;7.51;100.00;101141.81;7368104;19;20479;-52
2021/10/12 03:51:59;;;;;;;2.87;1.60;;;;;;;7.50;100.00;101151.97;7402848;19;20395;-49
2021/10/12 03:54:31;;;;;;;4.43;0.90;;;;;;;7.49;100.00;101147.63;7397378;19;20425;-53
2021/10/12 03:57:01;;;;;;;7.27;1.27;;;;;;;7.51;100.00;101148.59;7402505;19;20463;-50
2021/10/12 03:59:30;;;;;;;4.73;1.97;;;;;;;7.55;100.00;101154.00;7393772;19;20430;-52
2021/10/12 04:02:00;;;;;;;3.20;1.07;;;;;;;7.63;100.00;101157.06;7402522;19;20444;-51
2021/10/12 04:04:29;;;;;;;4.70;0.90;;;;;;;7.62;100.00;101155.28;7374877;19;20437;-54
2021/10/12 04:06:59;;;;;;;4.03;1.20;;;;;;;7.51;100.00;101152.06;7400891;19;20455;-53
2021/10/12 04:09:31;;;;;;;3.40;1.00;;;;;;;7.48;100.00;101143.28;7398263;19;20440;-53
2021/10/12 04:12:01;;;;;;;2.13;1.60;;;;;;;7.50;100.00;101139.13;7404225;19;20398;-51
2021/10/12 04:14:31;;;;;;;4.17;1.07;;;;;;;7.47;100.00;101133.78;7397308;19;20767;-53
2021/10/12 04:17:00;;;;;;;7.30;1.50;;;;;;;7.49;100.00;101137.38;7401106;19;20391;-51
2021/10/12 04:19:30;;;;;;;2.07;1.00;;;;;;;7.46;100.00;101126.88;7397631;19;20415;-50
2021/10/12 04:21:59;;;;;;;2.80;0.93;;;;;;;7.45;100.00;101123.47;7401843;19;20396;-51
2021/10/12 04:24:31;;;;;;;5.90;1.53;;;;;;;7.42;100.00;101126.72;7396362;19;20763;-52
2021/10/12 04:27:01;;;;;;;6.27;1.00;;;;;;;7.42;100.00;101125.81;7400878;19;20624;-50
2021/10/12 04:29:30;;;;;;;3.87;1.20;;;;;;;7.46;100.00;101121.75;7397041;19;20422;-49
2021/10/12 04:32:00;;;;;;;5.30;1.20;;;;;;;7.49;100.00;101127.09;7401631;19;20392;-51
2021/10/12 04:34:29;;;;;;;3.97;1.60;;;;;;;7.40;100.00;101115.44;7398616;19;20737;-52
2021/10/12 04:37:00;;;;;;;4.30;1.33;;;;;;;7.44;100.00;101121.69;7400308;19;20396;-53
2021/10/12 04:39:32;;;;;;;2.93;1.30;;;;;;;7.42;100.00;101116.44;7397131;19;20437;-52
2021/10/12 04:42:02;;;;;;;10.00;1.87;;;;;;;7.43;100.00;101114.75;7402101;19;20731;-49
2021/10/12 04:44:31;;;;;;;6.37;1.70;;;;;;;7.42;100.00;101108.75;7395789;19;20506;-52
2021/10/12 04:47:01;;;;;;;1.57;1.20;;;;;;;7.39;100.00;101108.56;7400022;19;20435;-48
2021/10/12 04:49:30;;;;;;;8.20;1.93;;;;;;;7.46;100.00;101107.25;7391810;19;20420;-53
2021/10/12 04:52:00;;;;;;;2.60;1.50;;;;;;;7.46;100.00;101106.34;7400845;19;20672;-53
2021/10/12 04:54:32;;;;;;;4.03;1.23;;;;;;;7.42;100.00;101107.84;7396219;19;20423;-49
2021/10/12 04:57:01;;;;;;;6.37;2.13;;;;;;;7.45;100.00;101109.72;7399819;19;20710;-51
2021/10/12 04:59:31;;;;;;;4.77;1.60;;;;;;;7.42;100.00;101108.75;7394311;19;20434;-50
2021/10/12 05:02:00;;;;;;;4.13;1.60;;;;;;;7.37;100.00;101112.72;7401350;19;20402;-52
2021/10/12 05:04:30;;;;;;;8.07;1.63;;;;;;;7.43;100.00;101105.38;7373571;19;20877;-49
2021/10/12 05:06:59;;;;;;;3.97;2.07;;;;;;;7.37;100.00;101102.44;7397834;19;20444;-51
2021/10/12 05:09:31;;;;;;;4.87;1.80;;;;;;;7.36;100.00;101105.81;7393430;19;20478;-48
2021/10/12 05:12:01;;;;;;;5.27;1.30;;;;;;;7.26;100.00;101094.09;7400278;19;20702;-48
2021/10/12 05:14:31;;;;;;;3.83;1.87;;;;;;;7.21;100.00;101097.16;7395664;19;20444;-50
2021/10/12 05:17:02;;;;;;;2.20;1.70;;;;;;;7.19;100.00;101094.53;7399090;19;20390;-52
2021/10/12 05:19:32;;;;;;;4.63;2.10;;;;;;;7.22;100.00;101097.25;7396126;19;20419;-48
2021/10/12 05:22:01;;;;;;;2.73;1.90;;;;;;;7.30;100.00;101101.19;7400478;19;20412;-50
2021/10/12 05:24:33;;;;;;;6.63;2.60;;;;;;;7.33;100.00;101103.03;7395628;19;20463;-48
2021/10/12 05:27:03;;;;;;;5.07;2.53;;;;;;;7.36;100.00;101100.69;7398882;19;20392;-52
2021/10/12 05:29:33;;;;;;;4.37;1.83;;;;;;;7.41;100.00;101113.78;7395466;19;20418;-53
2021/10/12 05:32:02;;;;;;;4.00;2.43;;;;;;;7.39;100.00;101110.25;7399756;19;20390;-52
2021/10/12 05:34:32;;;;;;;8.83;2.53;;;;;;;7.34;100.00;101117.66;7373035;19;20470;-54
2021/10/12 05:37:01;;;;;;;8.03;2.50;;;;;;;7.25;100.00;101109.41;7398029;19;20410;-55
2021/10/12 05:39:33;;;;;;;6.43;3.00;;;;;;;7.18;100.00;101104.69;7366943;19;20486;-50
2021/10/12 05:42:03;;;;;;;4.10;2.80;;;;;;;7.19;100.00;101103.91;7399418;19;20451;-52
2021/10/12 05:44:32;;;;;;;7.83;3.40;;;;;;;7.30;100.00;101108.00;7393921;19;20419;-54
2021/10/12 05:47:02;;;;;;;9.20;3.33;;;;;;;7.24;100.00;101110.19;7398344;19;20396;-55
2021/10/12 05:49:31;;;;;;;6.70;3.97;;;;;;;7.20;100.00;101113.38;7395221;19;20419;-54
2021/10/12 05:52:02;;;;;;;7.43;3.77;;;;;;;7.22;100.00;101109.22;7399052;19;20463;-54
2021/10/12 05:54:39;;;;;;;9.60;4.40;;;;;;;7.28;100.00;101110.47;7394437;19;20415;-55
2021/10/12 05:57:18;;;;;;;8.90;4.93;;;;;;;7.30;100.00;101110.56;7398066;19;20706;-55
2021/10/12 05:59:47;;;;;;;15.60;4.47;;;;;;;7.36;100.00;101113.50;7375021;19;20506;-52
2021/10/12 06:02:16;;;;;;;9.03;4.10;;;;;;;7.37;100.00;101117.84;7398506;19;20375;-54
2021/10/12 06:04:46;;;;;;;13.70;5.30;;;;;;;7.38;100.00;101117.06;7393643;19;20427;-54
2021/10/12 06:07:16;;;;;;;14.80;4.67;;;;;;;7.41;100.00;101119.81;7397431;19;20412;-53
2021/10/12 06:09:48;;;;;;;11.70;6.57;;;;;;;7.41;100.00;101113.78;7393421;19;20511;-55
2021/10/12 06:12:17;;;;;;;18.00;8.83;;;;;;;7.53;100.00;101126.47;7400714;19;20388;-53
2021/10/12 06:14:47;;;;;;;29.67;5.87;;;;;;;7.54;100.00;101125.69;7373240;19;20712;-51
2021/10/12 06:17:16;;;;;;;16.00;7.30;;;;;;;7.42;100.00;101124.16;7396696;19;20477;-52
2021/10/12 06:19:45;;;;;;;18.07;5.97;;;;;;;7.43;100.00;101119.88;7393280;19;20423;-53
2021/10/12 06:22:15;;;;;;;15.53;7.40;;;;;;;7.51;100.00;101128.06;7405429;19;20463;-55
2021/10/12 06:24:44;;;;;;;12.30;6.30;;;;;;;7.50;100.00;101129.75;7399703;19;20482;-50
2021/10/12 06:27:17;;;;;;;31.70;12.80;;;;;;;7.59;100.00;101139.66;7405418;19;20403;-54
2021/10/12 06:29:46;;;;;;;18.13;6.13;;;;;;;7.62;100.00;101133.84;7400887;19;20411;-54
2021/10/12 06:32:16;;;;;;;16.73;8.90;;;;;;;7.65;100.00;101137.47;7405096;19;20394;-54
2021/10/12 06:34:45;;;;;;;11.97;5.63;;;;;;;7.52;100.00;101130.72;7400247;19;20705;-54
2021/10/12 06:37:15;;;;;;;19.53;9.57;;;;;;;7.66;100.00;101141.84;7404074;19;20466;-54
2021/10/12 06:39:44;;;;;;;19.83;8.47;;;;;;;7.75;100.00;101141.47;7400402;19;20757;-54
2021/10/12 06:42:16;;;;;;;31.27;11.80;;;;;;;7.62;100.00;101137.31;7405062;19;20451;-55
2021/10/12 06:44:46;;;;;;;11.33;4.80;;;;;;;7.63;100.00;101140.78;7400212;19;20550;-55
2021/10/12 06:47:15;;;;;;;11.83;5.17;;;;;;;7.63;100.00;101143.34;7403843;19;20459;-55
2021/10/12 06:49:45;;;;;;;9.67;5.70;;;;;;;7.58;100.00;101145.59;7398074;19;20478;-55
2021/10/12 06:52:15;;;;;;;12.03;5.60;;;;;;;7.59;100.00;101155.06;7404535;19;20447;-54
2021/10/12 06:54:46;;;;;;;13.77;5.03;;;;;;;7.67;100.00;101152.97;7398663;19;20403;-56
2021/10/12 06:57:19;;;;;;;17.23;7.40;;;;;;;7.77;100.00;101152.75;7403410;19;20396;-51
2021/10/12 06:59:48;;;;;;;15.43;8.33;;;;;;;8.37;100.00;101155.31;7396878;19;20672;-50
2021/10/12 07:02:18;;;;;;;17.23;7.70;;;;;;;8.29;100.00;101155.69;7404919;19;20401;-51
2021/10/12 07:04:48;;;;;;;17.17;6.00;;;;;;;7.98;100.00;101154.81;7398787;19;20432;-52
2021/10/12 07:07:18;;;;;;;11.23;3.47;;;;;;;7.92;100.00;101152.78;7402982;19;20499;-53
2021/10/12 07:09:47;;;;;;;6.60;3.40;;;;;;;7.87;100.00;101146.47;7378302;19;20531;-50
2021/10/12 07:12:22;;;;;;;41.67;19.30;;;;;;;7.90;100.00;101150.91;7404372;19;20423;-52
2021/10/12 07:14:51;;;;;;;16.00;6.67;;;;;;;7.88;100.00;101150.81;7385751;19;20714;-53
2021/10/12 07:17:21;;;;;;;13.83;5.00;;;;;;;7.92;100.00;101155.34;7402854;19;20455;-50
2021/10/12 07:19:51;;;;;;;38.97;19.07;;;;;;;8.06;100.00;101142.41;7351018;19;20424;-50
2021/10/12 07:22:22;;;;;;;8.87;3.70;;;;;;;8.11;100.00;101146.13;7403389;19;20391;-52
2021/10/12 07:24:52;;;;;;;10.93;3.70;;;;;;;8.20;100.00;101146.66;7398568;19;20411;-50
2021/10/12 07:27:24;;;;;;;16.87;5.10;;;;;;;8.11;100.00;101141.00;7400143;19;20380;-51
2021/10/12 07:30:10;;;;;;;18.53;4.40;;;;;;;8.21;100.00;101138.13;7397087;19;20419;-54
2021/10/12 07:32:40;;;;;;;14.07;6.50;;;;;;;8.18;100.00;101145.69;7403164;19;20394;-51
2021/10/12 07:35:10;;;;;;;7.93;3.60;;;;;;;8.18;100.00;101140.56;7383654;19;20871;-53
2021/10/12 07:37:41;;;;;;;18.20;5.97;;;;;;;8.11;100.00;101136.72;7401769;19;20410;-51
2021/10/12 07:40:13;;;;;;;7.57;2.73;;;;;;;8.10;100.00;101134.06;7397739;19;20436;-52
2021/10/12 07:42:45;;;;;;;12.70;4.33;;;;;;;8.10;100.00;101137.53;7402940;19;20384;-52
2021/10/12 07:45:14;;;;;;;13.00;4.20;;;;;;;8.22;100.00;101146.75;7397928;19;20419;-50
2021/10/12 07:47:44;;;;;;;9.77;3.80;;;;;;;8.11;100.00;101141.00;7399476;19;20388;-52
2021/10/12 07:50:15;;;;;;;6.63;3.87;;;;;;;8.26;100.00;101146.13;7398934;19;20453;-50
2021/10/12 07:52:45;;;;;;;8.13;3.30;;;;;;;8.26;100.00;101150.38;7402309;19;20391;-53
2021/10/12 07:55:26;;;;;;;17.67;6.97;;;;;;;8.31;100.00;101148.97;7395232;19;20905;-53
2021/10/12 07:58:01;;;;;;;15.47;6.97;;;;;;;8.41;100.00;101143.53;7402116;19;20455;-52
2021/10/12 08:00:31;;;;;;;7.47;2.20;;;;;;;8.24;100.00;101147.72;7392001;19;20474;-49
2021/10/12 08:03:01;;;;;;;16.43;4.87;;;;;;;8.12;100.00;101142.75;7405957;19;20396;-53
2021/10/12 08:05:32;;;;;;;13.13;2.20;;;;;;;8.05;100.00;101143.22;7379056;19;20415;-53
2021/10/12 08:08:02;;;;;;;7.93;3.03;;;;;;;8.21;100.00;101135.56;7401837;19;20460;-49
2021/10/12 08:10:33;;;;;;;10.93;2.63;;;;;;;8.19;100.00;101134.59;7397190;19;20415;-54
2021/10/12 08:13:07;;;;;;;8.57;1.30;;;;;;;8.20;100.00;101136.38;7401380;19;20451;-50
2021/10/12 08:15:41;;;;;;;9.43;3.37;;;;;;;8.33;100.00;101131.94;7400431;19;20732;-49
2021/10/12 08:18:11;;;;;;;7.33;2.20;;;;;;;8.31;100.00;101129.25;7397676;19;20647;-50
2021/10/12 08:20:41;;;;;;;5.83;1.67;;;;;;;8.35;100.00;101126.06;7401207;19;20402;-47
2021/10/12 08:23:10;;;;;;;4.03;1.90;;;;;;;8.36;100.00;101126.97;7398557;19;20762;-53
2021/10/12 08:25:40;;;;;;;8.40;1.30;;;;;;;8.32;100.00;101122.44;7402854;19;20459;-53
2021/10/12 08:28:12;;;;;;;8.60;2.30;;;;;;;8.34;100.00;101128.56;7397073;19;20392;-51
2021/10/12 08:30:41;;;;;;;6.07;1.60;;;;;;;8.21;100.00;101127.00;7400941;19;20409;-49
2021/10/12 08:33:11;;;;;;;5.10;1.57;;;;;;;8.22;100.00;101123.63;7397204;19;20702;-48
2021/10/12 08:35:40;;;;;;;18.17;2.00;;;;;;;8.40;100.00;101123.75;7399909;19;20414;-49
2021/10/12 08:38:30;;;;;;;11.67;2.30;;;;;;;8.41;100.00;101116.94;7396664;19;20415;-50
2021/10/12 08:41:01;;;;;;;11.70;3.27;;;;;;;8.47;100.00;101120.72;7400912;19;20447;-52
2021/10/12 08:43:33;;;;;;;7.37;1.90;;;;;;;8.55;100.00;101125.47;7388726;19;20427;-48
2021/10/12 08:46:03;;;;;;;9.83;4.23;;;;;;;8.48;100.00;101114.81;7399782;19;20460;-52
2021/10/12 08:48:34;;;;;;;10.60;2.43;;;;;;;8.54;100.00;101123.69;7370270;19;20421;-51
2021/10/12 08:51:05;;;;;;;11.60;1.60;;;;;;;8.50;100.00;101120.91;7400502;19;20406;-50
2021/10/12 08:53:36;;;;;;;6.03;2.47;;;;;;;8.56;100.00;101111.81;7395346;19;20890;-54
2021/10/12 08:56:06;;;;;;;8.47;1.40;;;;;;;8.62;100.00;101109.59;7399599;19;20403;-52
2021/10/12 08:58:38;;;;;;;8.50;3.00;;;;;;;8.56;100.00;101104.97;7368748;19;20479;-53
2021/10/12 09:01:09;;;;;;;14.27;6.43;;;;;;;8.74;100.00;101093.94;7402751;19;20828;-54
2021/10/12 09:03:59;;;;;;;13.30;6.60;;;;;;;8.81;100.00;101105.44;7366580;19;20945;-50
2021/10/12 09:06:30;;;;;;;7.20;2.50;;;;;;;8.81;100.00;101100.31;7398959;19;20395;-52
2021/10/12 09:09:17;;;;;;;11.10;2.90;;;;;;;8.84;100.00;101097.88;7392256;19;20490;-54
2021/10/12 09:11:47;;;;;;;7.80;2.67;;;;;;;8.98;100.00;101098.63;7399725;19;20380;-50
2021/10/12 09:14:19;;;;;;;4.67;1.13;;;;;;;8.84;100.00;101101.34;7398866;19;20411;-54
2021/10/12 09:16:48;;;;;;;2.43;1.20;;;;;;;8.76;100.00;101093.22;7398486;19;20495;-52
2021/10/12 09:19:20;;;;;;;4.10;1.40;;;;;;;8.89;100.00;101104.16;7376299;19;20431;-54
2021/10/12 09:21:52;;;;;;;5.90;2.53;;;;;;;8.99;100.00;101105.56;7398506;19;20380;-53
2021/10/12 09:24:23;;;;;;;11.87;1.40;;;;;;;8.93;100.00;101107.78;7394533;19;20722;-54
2021/10/12 09:27:03;;;;;;;10.30;4.20;;;;;;;8.94;100.00;101100.16;7398158;19;20380;-50
2021/10/12 09:29:37;;;;;;;6.20;1.53;;;;;;;8.95;100.00;101103.59;7394857;19;20483;-49
2021/10/12 09:32:08;;;;;;;5.77;1.47;;;;;;;8.99;100.00;101095.25;7398996;19;20406;-53
2021/10/12 09:34:38;;;;;;;18.83;5.83;;;;;;;9.01;100.00;101089.38;7393685;19;20414;-54
2021/10/12 09:37:09;;;;;;;16.47;4.73;;;;;;;9.03;100.00;101092.06;7399560;19;20403;-53
2021/10/12 09:39:42;;;;;;;12.80;2.73;;;;;;;9.12;100.00;101092.53;7394623;19;20491;-51
2021/10/12 09:42:13;;;;;;;5.83;1.57;;;;;;;9.11;100.00;101089.88;7398631;19;20387;-52
2021/10/12 09:44:53;;;;;;;6.43;2.20;;;;;;;9.34;100.00;101095.34;7393936;19;20407;-51
2021/10/12 09:47:23;;;;;;;8.10;1.23;;;;;;;9.27;100.00;101088.97;7401250;19;20395;-53
2021/10/12 09:50:08;;;;;;;5.77;1.80;;;;;;;9.25;100.00;101098.31;7394901;19;20486;-51
2021/10/12 09:52:38;;;;;;;7.23;1.30;;;;;;;9.32;100.00;101097.84;7398757;19;20455;-54
2021/10/12 09:55:09;;;;;;;59.47;20.30;;;;;;;9.44;100.00;101095.03;7401060;19;20413;-55
2021/10/12 09:57:40;;;;;;;4.70;1.23;;;;;;;9.51;100.00;101094.53;7405665;19;20447;-54
2021/10/12 10:00:13;;;;;;;11.67;3.03;;;;;;;9.61;100.00;101090.75;7401261;19;20486;-55
2021/10/12 10:02:43;;;;;;;10.30;3.80;;;;;;;9.57;100.00;101093.97;7406063;19;20447;-54
2021/10/12 10:05:13;;;;;;;12.40;4.37;;;;;;;9.74;100.00;101094.81;7401289;19;20411;-53
2021/10/12 10:07:46;;;;;;;12.30;5.00;;;;;;;10.02;100.00;101096.22;7404411;19;20403;-53
2021/10/12 10:10:34;;;;;;;8.53;3.23;;;;;;;9.89;100.00;101088.69;7404837;19;20766;-50
2021/10/12 10:13:03;;;;;;;45.77;12.03;;;;;;;9.78;100.00;101086.44;7406577;19;20404;-53
2021/10/12 10:15:37;;;;;;;7.27;2.33;;;;;;;9.89;100.00;101093.84;7378676;19;20394;-51
2021/10/12 10:18:06;;;;;;;5.30;1.87;;;;;;;9.73;100.00;101082.75;7405582;19;20666;-55
2021/10/12 10:20:36;;;;;;;6.60;2.07;;;;;;;9.74;100.00;101092.22;7408444;19;20442;-54
2021/10/12 10:23:05;;;;;;;6.13;1.60;;;;;;;9.81;100.00;101096.00;7404994;19;20750;-53
2021/10/12 10:25:38;;;;;;;19.00;8.03;;;;;;;9.76;100.00;101093.22;7404804;19;20467;-55
2021/10/12 10:28:26;;;;;;;7.60;3.83;;;;;;;9.88;100.00;101095.50;7403531;19;20390;-54
2021/10/12 10:31:00;;;;;;;13.00;3.17;;;;;;;9.90;100.00;101090.44;7403633;19;20478;-55
2021/10/12 10:33:31;;;;;;;7.27;1.53;;;;;;;9.82;100.00;101096.09;7394352;19;20711;-53
2021/10/12 10:36:02;;;;;;;3.47;1.20;;;;;;;9.85;100.00;101097.94;7405732;19;20786;-52
2021/10/12 10:38:42;;;;;;;15.27;5.57;;;;;;;9.97;100.00;101095.09;7399659;19;20462;-53
2021/10/12 10:41:27;;;;;;;8.57;1.10;;;;;;;10.02;100.00;101093.63;7404464;19;20474;-54
2021/10/12 10:43:59;;;;;;;5.80;1.60;;;;;;;9.82;100.00;101098.69;7400361;19;20719;-52
2021/10/12 10:46:41;;;;;;;6.70;1.10;;;;;;;9.92;100.00;101099.13;7407833;19;20463;-51
2021/10/12 10:49:16;;;;;;;5.77;1.30;;;;;;;9.97;100.00;101084.78;7402261;19;20442;-50
2021/10/12 10:52:05;;;;;;;17.30;7.13;;;;;;;10.09;100.00;101108.59;7408204;19;20413;-50
2021/10/12 10:55:04;;;;;;;9.20;1.00;;;;;;;10.16;100.00;101093.41;7401646;19;20427;-51
2021/10/12 10:57:35;;;;;;;8.67;2.83;;;;;;;10.26;100.00;101087.91;7407534;19;20736;-55
2021/10/12 11:00:27;;;;;;;4.77;1.13;;;;;;;10.21;100.00;101077.34;7383686;19;20430;-51
2021/10/12 11:02:59;;;;;;;8.57;2.50;;;;;;;10.30;100.00;101094.97;7407692;19;20411;-49
2021/10/12 11:05:36;;;;;;;5.67;2.00;;;;;;;10.37;100.00;101091.00;7400533;19;20452;-51
2021/10/12 11:08:15;;;;;;;9.60;3.17;;;;;;;10.57;100.00;101094.56;7406429;19;20408;-51
2021/10/12 11:10:45;;;;;;;9.47;1.20;;;;;;;10.56;100.00;101081.59;7401792;19;20811;-48
2021/10/12 11:13:15;;;;;;;8.13;2.53;;;;;;;10.47;100.00;101085.47;7371514;19;20412;-53
2021/10/12 11:15:52;;;;;;;5.47;1.17;;;;;;;10.57;100.00;101081.66;7396238;19;20502;-48
2021/10/12 11:18:24;;;;;;;7.93;1.70;;;;;;;10.62;100.00;101081.88;7398196;19;20664;-48
2021/10/12 11:20:56;;;;;;;10.77;1.40;;;;;;;10.77;100.00;101076.53;7407468;19;20395;-53
2021/10/12 11:23:28;;;;;;;5.00;1.00;;;;;;;10.89;100.00;101076.22;7394448;19;20425;-51
2021/10/12 11:26:10;;;;;;;2.27;1.10;;;;;;;10.96;100.00;101074.81;7405595;19;20410;-49
2021/10/12 11:28:41;;;;;;;6.10;1.30;;;;;;;10.81;100.00;101075.84;7400760;19;20506;-55
2021/10/12 11:31:13;;;;;;;6.77;1.57;;;;;;;10.81;100.00;101065.53;7407142;19;20406;-54
2021/10/12 11:33:47;;;;;;;8.40;2.27;;;;;;;10.70;100.00;101082.22;7391390;19;20507;-52
2021/10/12 11:36:18;;;;;;;7.93;1.30;;;;;;;10.63;100.00;101079.38;7405795;19;20396;-53
2021/10/12 11:38:51;;;;;;;3.90;1.37;;;;;;;10.51;100.00;101073.63;7400463;19;20415;-54
2021/10/12 11:41:28;;;;;;;7.90;2.20;;;;;;;10.36;100.00;101077.19;7402698;19;20388;-54